createdAt,value
2018-11-11T00:00:52.245Z,926.36
2018-11-11T00:01:52.223Z,926.38
2018-11-11T00:02:52.205Z,926.37
2018-11-11T00:03:52.186Z,926.37
2018-11-11T00:04:52.160Z,926.36
2018-11-11T00:05:52.141Z,926.37
2018-11-11T00:06:52.125Z,926.33
2018-11-11T00:07:52.108Z,926.35
2018-11-11T00:08:52.077Z,926.37
2018-11-11T00:09:52.046Z,926.33
2018-11-11T00:10:52.028Z,926.36
2018-11-11T00:11:52.012Z,926.34
2018-11-11T00:12:52.002Z,926.34
2018-11-11T00:13:51.974Z,926.30
2018-11-11T00:14:51.939Z,926.39
2018-11-11T00:15:51.930Z,926.36
2018-11-11T00:16:51.911Z,926.35
2018-11-11T00:17:51.893Z,926.34
2018-11-11T00:18:51.870Z,926.28
2018-11-11T00:19:51.830Z,926.34
2018-11-11T00:20:51.825Z,926.34
2018-11-11T00:21:51.948Z,926.36
2018-11-11T00:22:51.784Z,926.38
2018-11-11T00:23:51.769Z,926.37
2018-11-11T00:24:51.745Z,926.42
2018-11-11T00:25:51.723Z,926.41
2018-11-11T00:26:51.698Z,926.39
2018-11-11T00:27:51.665Z,926.39
2018-11-11T00:28:51.664Z,926.41
2018-11-11T00:29:51.645Z,926.38
2018-11-11T00:30:51.619Z,926.37
2018-11-11T00:31:51.605Z,926.39
2018-11-11T00:32:51.578Z,926.42
2018-11-11T00:33:51.550Z,926.42
2018-11-11T00:34:51.537Z,926.39
2018-11-11T00:35:51.520Z,926.39
2018-11-11T00:36:51.494Z,926.40
2018-11-11T00:37:51.477Z,926.38
2018-11-11T00:38:51.442Z,926.42
2018-11-11T00:39:51.428Z,926.41
2018-11-11T00:40:51.407Z,926.39
2018-11-11T00:41:51.386Z,926.39
2018-11-11T00:42:51.360Z,926.38
2018-11-11T00:43:51.328Z,926.40
2018-11-11T00:44:51.308Z,926.38
2018-11-11T00:45:51.310Z,926.34
2018-11-11T00:46:51.281Z,926.38
2018-11-11T00:47:51.261Z,926.39
2018-11-11T00:48:51.238Z,926.39
2018-11-11T00:49:51.215Z,926.43
2018-11-11T00:50:51.196Z,926.42
2018-11-11T00:51:51.179Z,926.41
2018-11-11T00:52:51.155Z,926.41
2018-11-11T00:53:51.135Z,926.45
2018-11-11T00:54:51.099Z,926.41
2018-11-11T00:55:51.091Z,926.45
2018-11-11T00:56:51.067Z,926.43
2018-11-11T00:57:51.054Z,926.43
2018-11-11T00:58:51.021Z,926.43
2018-11-11T00:59:51.003Z,926.45
2018-11-11T01:00:50.988Z,926.46
2018-11-11T01:01:50.963Z,926.44
2018-11-11T01:02:50.932Z,926.47
2018-11-11T01:03:50.908Z,926.47
2018-11-11T01:04:50.896Z,926.50
2018-11-11T01:05:50.881Z,926.52
2018-11-11T01:06:50.862Z,926.52
2018-11-11T01:07:50.840Z,926.53
2018-11-11T01:08:50.823Z,926.55
2018-11-11T01:09:50.800Z,926.55
2018-11-11T01:11:23.996Z,926.56
2018-11-11T01:11:50.756Z,926.58
2018-11-11T01:12:50.741Z,926.61
2018-11-11T01:13:50.720Z,926.55
2018-11-11T01:14:50.695Z,926.58
2018-11-11T01:15:50.672Z,926.60
2018-11-11T01:16:50.654Z,926.60
2018-11-11T01:17:50.618Z,926.59
2018-11-11T01:18:50.606Z,926.61
2018-11-11T01:19:50.588Z,926.62
2018-11-11T01:20:50.569Z,926.62
2018-11-11T01:21:50.551Z,926.61
2018-11-11T01:22:50.512Z,926.65
2018-11-11T01:23:50.491Z,926.59
2018-11-11T01:24:50.489Z,926.60
2018-11-11T01:25:50.466Z,926.66
2018-11-11T01:26:50.446Z,926.62
2018-11-11T01:27:50.425Z,926.64
2018-11-11T01:28:50.405Z,926.60
2018-11-11T01:29:50.380Z,926.63
2018-11-11T01:30:50.358Z,926.65
2018-11-11T01:31:50.339Z,926.70
2018-11-11T01:32:50.319Z,926.72
2018-11-11T01:33:50.296Z,926.73
2018-11-11T01:34:50.273Z,926.69
2018-11-11T01:35:50.256Z,926.66
2018-11-11T01:36:50.231Z,926.67
2018-11-11T01:37:50.211Z,926.63
2018-11-11T01:38:50.191Z,926.62
2018-11-11T01:39:50.170Z,926.64
2018-11-11T01:40:50.147Z,926.64
2018-11-11T01:41:50.132Z,926.62
2018-11-11T01:42:50.095Z,926.63
2018-11-11T01:43:50.091Z,926.65
2018-11-11T01:44:50.071Z,926.69
2018-11-11T01:45:50.042Z,926.66
2018-11-11T01:46:50.029Z,926.66
2018-11-11T01:47:50.006Z,926.66
2018-11-11T01:48:49.990Z,926.62
2018-11-11T01:49:49.963Z,926.59
2018-11-11T01:50:49.942Z,926.60
2018-11-11T01:51:49.920Z,926.57
2018-11-11T01:52:49.907Z,926.58
2018-11-11T01:53:49.882Z,926.54
2018-11-11T01:54:49.858Z,926.57
2018-11-11T01:55:49.843Z,926.51
2018-11-11T01:56:49.817Z,926.50
2018-11-11T01:57:49.796Z,926.47
2018-11-11T01:58:49.776Z,926.39
2018-11-11T01:59:49.749Z,926.41
2018-11-11T02:00:49.722Z,926.37
2018-11-11T02:01:49.711Z,926.36
2018-11-11T02:02:49.692Z,926.38
2018-11-11T02:03:49.667Z,926.37
2018-11-11T02:04:49.650Z,926.40
2018-11-11T02:05:49.615Z,926.40
2018-11-11T02:06:49.604Z,926.38
2018-11-11T02:07:49.624Z,926.34
2018-11-11T02:08:49.569Z,926.29
2018-11-11T02:09:49.587Z,926.34
2018-11-11T02:10:49.518Z,926.34
2018-11-11T02:11:49.505Z,926.33
2018-11-11T02:12:49.484Z,926.34
2018-11-11T02:13:49.472Z,926.34
2018-11-11T02:14:49.436Z,926.35
2018-11-11T02:15:49.418Z,926.33
2018-11-11T02:16:49.396Z,926.31
2018-11-11T02:17:49.384Z,926.36
2018-11-11T02:18:49.364Z,926.38
2018-11-11T02:19:49.343Z,926.40
2018-11-11T02:20:49.326Z,926.36
2018-11-11T02:21:49.289Z,926.39
2018-11-11T02:22:49.279Z,926.39
2018-11-11T02:23:49.250Z,926.39
2018-11-11T02:24:49.233Z,926.39
2018-11-11T02:25:49.196Z,926.41
2018-11-11T02:26:49.190Z,926.38
2018-11-11T02:27:49.167Z,926.39
2018-11-11T02:28:49.152Z,926.39
2018-11-11T02:29:49.132Z,926.39
2018-11-11T02:30:49.109Z,926.36
2018-11-11T02:31:49.088Z,926.38
2018-11-11T02:32:49.069Z,926.40
2018-11-11T02:33:49.043Z,926.34
2018-11-11T02:34:49.032Z,926.34
2018-11-11T02:35:49.001Z,926.35
2018-11-11T02:36:48.987Z,926.32
2018-11-11T02:37:48.971Z,926.32
2018-11-11T02:38:48.939Z,926.34
2018-11-11T02:39:48.922Z,926.30
2018-11-11T02:40:48.886Z,926.32
2018-11-11T02:41:48.883Z,926.33
2018-11-11T02:42:48.857Z,926.31
2018-11-11T02:43:48.840Z,926.30
2018-11-11T02:44:48.818Z,926.30
2018-11-11T02:45:48.801Z,926.27
2018-11-11T02:47:21.968Z,926.24
2018-11-11T02:47:48.761Z,926.27
2018-11-11T02:48:48.725Z,926.21
2018-11-11T02:49:48.712Z,926.21
2018-11-11T02:50:48.694Z,926.24
2018-11-11T02:51:48.677Z,926.20
2018-11-11T02:52:48.651Z,926.20
2018-11-11T02:53:48.619Z,926.18
2018-11-11T02:54:48.614Z,926.17
2018-11-11T02:55:48.589Z,926.16
2018-11-11T02:56:48.573Z,926.16
2018-11-11T02:57:48.554Z,926.16
2018-11-11T02:58:48.527Z,926.13
2018-11-11T02:59:48.493Z,926.16
2018-11-11T03:00:48.472Z,926.19
2018-11-11T03:01:48.450Z,926.14
2018-11-11T03:02:48.446Z,926.11
2018-11-11T03:03:48.424Z,926.16
2018-11-11T03:04:48.392Z,926.16
2018-11-11T03:05:48.382Z,926.14
2018-11-11T03:06:48.366Z,926.21
2018-11-11T03:07:48.342Z,926.22
2018-11-11T03:08:48.308Z,926.18
2018-11-11T03:09:48.290Z,926.20
2018-11-11T03:10:48.268Z,926.17
2018-11-11T03:11:48.259Z,926.22
2018-11-11T03:12:48.244Z,926.15
2018-11-11T03:13:48.225Z,926.15
2018-11-11T03:14:48.197Z,926.16
2018-11-11T03:15:48.186Z,926.10
2018-11-11T03:16:48.156Z,926.16
2018-11-11T03:17:48.142Z,926.11
2018-11-11T03:18:48.119Z,926.06
2018-11-11T03:19:48.101Z,926.08
2018-11-11T03:20:48.077Z,926.09
2018-11-11T03:21:48.058Z,926.05
2018-11-11T03:22:48.037Z,926.04
2018-11-11T03:23:48.000Z,925.99
2018-11-11T03:24:47.989Z,926.04
2018-11-11T03:25:47.972Z,926.01
2018-11-11T03:26:47.952Z,925.99
2018-11-11T03:27:48.003Z,925.97
2018-11-11T03:28:47.910Z,925.97
2018-11-11T03:29:47.881Z,925.93
2018-11-11T03:30:47.873Z,925.94
2018-11-11T03:31:47.856Z,925.91
2018-11-11T03:32:47.847Z,925.92
2018-11-11T03:33:47.811Z,925.91
2018-11-11T03:34:47.787Z,925.88
2018-11-11T03:35:47.773Z,925.88
2018-11-11T03:36:47.745Z,925.90
2018-11-11T03:37:47.738Z,925.85
2018-11-11T03:38:47.690Z,925.84
2018-11-11T03:39:47.683Z,925.89
2018-11-11T03:40:47.666Z,925.86
2018-11-11T03:41:47.642Z,925.84
2018-11-11T03:42:47.622Z,925.79
2018-11-11T03:43:47.588Z,925.76
2018-11-11T03:44:47.579Z,925.77
2018-11-11T03:45:47.555Z,925.71
2018-11-11T03:46:47.540Z,925.69
2018-11-11T03:47:47.516Z,925.63
2018-11-11T03:48:47.489Z,925.62
2018-11-11T03:49:47.479Z,925.63
2018-11-11T03:50:47.437Z,925.59
2018-11-11T03:51:47.435Z,925.55
2018-11-11T03:52:47.418Z,925.61
2018-11-11T03:53:47.389Z,925.52
2018-11-11T03:54:47.360Z,925.51
2018-11-11T03:55:47.347Z,925.48
2018-11-11T03:56:47.330Z,925.47
2018-11-11T03:57:47.302Z,925.47
2018-11-11T03:58:47.371Z,925.49
2018-11-11T03:59:47.267Z,925.45
2018-11-11T04:00:47.253Z,925.46
2018-11-11T04:01:47.224Z,925.46
2018-11-11T04:02:47.203Z,925.51
2018-11-11T04:03:47.167Z,925.50
2018-11-11T04:04:47.162Z,925.48
2018-11-11T04:05:47.128Z,925.53
2018-11-11T04:06:47.105Z,925.50
2018-11-11T04:07:47.101Z,925.47
2018-11-11T04:08:47.067Z,925.46
2018-11-11T04:09:47.057Z,925.50
2018-11-11T04:10:47.039Z,925.48
2018-11-11T04:11:47.004Z,925.44
2018-11-11T04:12:46.978Z,925.46
2018-11-11T04:13:46.976Z,925.42
2018-11-11T04:14:46.957Z,925.41
2018-11-11T04:15:46.938Z,925.42
2018-11-11T04:16:46.914Z,925.37
2018-11-11T04:17:46.876Z,925.35
2018-11-11T04:18:46.877Z,925.40
2018-11-11T04:19:46.850Z,925.33
2018-11-11T04:20:46.826Z,925.35
2018-11-11T04:21:46.806Z,925.34
2018-11-11T04:22:46.792Z,925.34
2018-11-11T04:23:46.766Z,925.30
2018-11-11T04:24:46.745Z,925.28
2018-11-11T04:25:46.725Z,925.26
2018-11-11T04:26:46.704Z,925.25
2018-11-11T04:27:46.680Z,925.25
2018-11-11T04:28:46.665Z,925.28
2018-11-11T04:29:46.640Z,925.23
2018-11-11T04:30:46.624Z,925.22
2018-11-11T04:31:46.589Z,925.19
2018-11-11T04:32:46.579Z,925.19
2018-11-11T04:33:46.557Z,925.18
2018-11-11T04:34:46.537Z,925.20
2018-11-11T04:35:46.525Z,925.17
2018-11-11T04:36:46.497Z,925.19
2018-11-11T04:37:46.481Z,925.18
2018-11-11T04:38:46.463Z,925.20
2018-11-11T04:39:46.434Z,925.18
2018-11-11T04:40:46.399Z,925.25
2018-11-11T04:41:46.393Z,925.24
2018-11-11T04:42:46.371Z,925.22
2018-11-11T04:43:46.354Z,925.22
2018-11-11T04:44:46.331Z,925.26
2018-11-11T04:45:46.312Z,925.25
2018-11-11T04:46:46.291Z,925.25
2018-11-11T04:47:46.271Z,925.27
2018-11-11T04:48:46.250Z,925.25
2018-11-11T04:49:46.228Z,925.23
2018-11-11T04:50:46.204Z,925.23
2018-11-11T04:51:46.187Z,925.26
2018-11-11T04:52:46.163Z,925.22
2018-11-11T04:53:46.149Z,925.14
2018-11-11T04:54:46.125Z,925.13
2018-11-11T04:55:46.088Z,925.09
2018-11-11T04:56:46.080Z,925.03
2018-11-11T04:57:46.046Z,925.03
2018-11-11T04:58:46.028Z,924.93
2018-11-11T04:59:46.022Z,924.94
2018-11-11T05:00:45.994Z,924.93
2018-11-11T05:01:45.974Z,924.94
2018-11-11T05:02:45.952Z,924.90
2018-11-11T05:03:45.937Z,924.90
2018-11-11T05:04:46.105Z,924.88
2018-11-11T05:05:45.898Z,924.94
2018-11-11T05:06:45.877Z,924.90
2018-11-11T05:07:45.850Z,924.92
2018-11-11T05:08:45.819Z,924.94
2018-11-11T05:09:45.808Z,924.93
2018-11-11T05:10:45.789Z,924.98
2018-11-11T05:11:45.760Z,924.96
2018-11-11T05:12:45.746Z,924.92
2018-11-11T05:13:45.725Z,924.91
2018-11-11T05:14:45.694Z,924.92
2018-11-11T05:15:45.673Z,924.93
2018-11-11T05:16:45.649Z,924.97
2018-11-11T05:17:45.648Z,924.99
2018-11-11T05:18:45.603Z,924.97
2018-11-11T05:19:45.589Z,924.93
2018-11-11T05:20:45.579Z,924.95
2018-11-11T05:21:45.587Z,924.97
2018-11-11T05:22:45.535Z,924.91
2018-11-11T05:23:45.516Z,924.85
2018-11-11T05:24:45.498Z,924.85
2018-11-11T05:25:45.474Z,924.91
2018-11-11T05:26:45.457Z,924.88
2018-11-11T05:27:45.433Z,924.90
2018-11-11T05:28:45.414Z,924.87
2018-11-11T05:29:45.398Z,924.82
2018-11-11T05:30:45.383Z,924.83
2018-11-11T05:31:45.345Z,924.84
2018-11-11T05:32:45.327Z,924.80
2018-11-11T05:33:45.291Z,924.79
2018-11-11T05:34:45.287Z,924.76
2018-11-11T05:35:45.254Z,924.77
2018-11-11T05:36:45.233Z,924.71
2018-11-11T05:37:45.208Z,924.76
2018-11-11T05:38:45.221Z,924.78
2018-11-11T05:39:45.183Z,924.73
2018-11-11T05:40:45.158Z,924.74
2018-11-11T05:41:45.148Z,924.75
2018-11-11T05:42:45.121Z,924.77
2018-11-11T05:43:45.098Z,924.75
2018-11-11T05:44:45.064Z,924.77
2018-11-11T05:45:45.058Z,924.78
2018-11-11T05:46:45.033Z,924.85
2018-11-11T05:47:45.014Z,924.86
2018-11-11T05:48:45.000Z,924.84
2018-11-11T05:49:44.973Z,924.88
2018-11-11T05:50:44.953Z,924.88
2018-11-11T05:51:44.930Z,924.89
2018-11-11T05:52:44.914Z,924.89
2018-11-11T05:53:44.887Z,924.86
2018-11-11T05:54:44.871Z,924.85
2018-11-11T05:55:44.842Z,924.91
2018-11-11T05:56:44.812Z,924.89
2018-11-11T05:57:44.835Z,924.90
2018-11-11T05:58:44.786Z,924.92
2018-11-11T05:59:44.745Z,924.94
2018-11-11T06:00:44.739Z,924.90
2018-11-11T06:01:44.700Z,924.91
2018-11-11T06:02:44.690Z,924.85
2018-11-11T06:03:44.664Z,924.90
2018-11-11T06:04:44.654Z,924.89
2018-11-11T06:05:44.638Z,924.89
2018-11-11T06:06:44.612Z,924.82
2018-11-11T06:07:44.594Z,924.81
2018-11-11T06:08:44.572Z,924.84
2018-11-11T06:09:44.554Z,924.81
2018-11-11T06:10:44.538Z,924.77
2018-11-11T06:11:44.491Z,924.78
2018-11-11T06:12:44.478Z,924.78
2018-11-11T06:13:44.454Z,924.77
2018-11-11T06:14:44.451Z,924.74
2018-11-11T06:15:44.426Z,924.80
2018-11-11T06:16:44.405Z,924.86
2018-11-11T06:17:44.383Z,924.85
2018-11-11T06:18:44.369Z,924.87
2018-11-11T06:19:44.328Z,924.85
2018-11-11T06:20:44.302Z,924.82
2018-11-11T06:21:44.300Z,924.82
2018-11-11T06:22:44.258Z,924.86
2018-11-11T06:23:44.256Z,924.85
2018-11-11T06:24:44.234Z,924.77
2018-11-11T06:25:44.215Z,924.82
2018-11-11T06:26:44.202Z,924.86
2018-11-11T06:27:44.179Z,924.86
2018-11-11T06:28:44.150Z,924.83
2018-11-11T06:29:44.131Z,924.87
2018-11-11T06:30:44.099Z,924.92
2018-11-11T06:31:44.096Z,924.93
2018-11-11T06:32:44.072Z,924.94
2018-11-11T06:33:44.047Z,924.92
2018-11-11T06:34:44.029Z,924.93
2018-11-11T06:35:44.000Z,924.97
2018-11-11T06:36:43.981Z,924.93
2018-11-11T06:37:43.961Z,924.94
2018-11-11T06:38:43.925Z,924.94
2018-11-11T06:39:43.903Z,924.98
2018-11-11T06:40:43.883Z,924.96
2018-11-11T06:41:43.861Z,924.95
2018-11-11T06:42:43.851Z,924.91
2018-11-11T06:43:43.832Z,924.92
2018-11-11T06:44:43.812Z,924.88
2018-11-11T06:45:43.788Z,924.87
2018-11-11T06:46:43.772Z,924.86
2018-11-11T06:47:43.741Z,924.86
2018-11-11T06:48:43.738Z,924.87
2018-11-11T06:49:43.705Z,924.90
2018-11-11T06:50:43.692Z,924.91
2018-11-11T06:51:43.674Z,924.92
2018-11-11T06:52:43.644Z,924.93
2018-11-11T06:53:43.625Z,924.95
2018-11-11T06:54:43.603Z,924.86
2018-11-11T06:55:43.582Z,924.92
2018-11-11T06:56:43.560Z,924.91
2018-11-11T06:57:43.546Z,924.92
2018-11-11T06:58:43.506Z,924.91
2018-11-11T06:59:43.496Z,924.89
2018-11-11T07:00:43.478Z,924.86
2018-11-11T07:01:43.463Z,924.83
2018-11-11T07:02:43.433Z,924.82
2018-11-11T07:03:43.411Z,924.89
2018-11-11T07:04:43.398Z,924.88
2018-11-11T07:05:43.378Z,924.93
2018-11-11T07:06:43.347Z,924.92
2018-11-11T07:07:43.400Z,924.93
2018-11-11T07:08:43.306Z,924.95
2018-11-11T07:09:43.288Z,924.95
2018-11-11T07:10:43.272Z,924.94
2018-11-11T07:11:43.245Z,924.95
2018-11-11T07:12:43.224Z,924.97
2018-11-11T07:13:43.213Z,924.98
2018-11-11T07:14:43.184Z,924.97
2018-11-11T07:15:43.159Z,924.98
2018-11-11T07:16:43.145Z,925.04
2018-11-11T07:17:43.103Z,924.98
2018-11-11T07:18:43.096Z,925.03
2018-11-11T07:19:43.080Z,925.09
2018-11-11T07:20:43.055Z,925.07
2018-11-11T07:21:43.044Z,925.10
2018-11-11T07:22:43.017Z,925.13
2018-11-11T07:23:43.060Z,925.17
2018-11-11T07:24:42.960Z,925.12
2018-11-11T07:25:42.937Z,925.15
2018-11-11T07:26:42.919Z,925.15
2018-11-11T07:27:42.908Z,925.16
2018-11-11T07:28:42.891Z,925.18
2018-11-11T07:29:42.871Z,925.23
2018-11-11T07:30:42.839Z,925.21
2018-11-11T07:31:42.833Z,925.19
2018-11-11T07:32:42.800Z,925.17
2018-11-11T07:33:42.772Z,925.20
2018-11-11T07:34:42.761Z,925.18
2018-11-11T07:35:42.739Z,925.15
2018-11-11T07:36:42.725Z,925.14
2018-11-11T07:37:42.700Z,925.13
2018-11-11T07:38:42.678Z,925.07
2018-11-11T07:39:42.653Z,925.06
2018-11-11T07:40:42.637Z,925.04
2018-11-11T07:41:42.615Z,925.01
2018-11-11T07:42:42.593Z,925.01
2018-11-11T07:43:42.559Z,925.05
2018-11-11T07:44:42.534Z,925.03
2018-11-11T07:45:42.515Z,925.01
2018-11-11T07:46:42.506Z,925.07
2018-11-11T07:47:42.534Z,925.08
2018-11-11T07:48:42.468Z,925.08
2018-11-11T07:49:42.445Z,925.02
2018-11-11T07:50:42.428Z,925.04
2018-11-11T07:51:42.389Z,925.05
2018-11-11T07:52:42.380Z,925.03
2018-11-11T07:53:42.363Z,925.06
2018-11-11T07:54:42.404Z,925.07
2018-11-11T07:55:42.318Z,925.05
2018-11-11T07:56:42.294Z,925.09
2018-11-11T07:57:42.275Z,925.09
2018-11-11T07:58:42.251Z,925.06
2018-11-11T07:59:42.236Z,925.12
2018-11-11T08:00:42.213Z,925.09
2018-11-11T08:01:42.276Z,925.08
2018-11-11T08:02:42.159Z,925.07
2018-11-11T08:03:42.147Z,925.09
2018-11-11T08:04:42.126Z,925.12
2018-11-11T08:05:42.101Z,925.18
2018-11-11T08:06:42.085Z,925.16
2018-11-11T08:07:42.049Z,925.19
2018-11-11T08:08:42.044Z,925.22
2018-11-11T08:09:42.027Z,925.22
2018-11-11T08:10:42.006Z,925.29
2018-11-11T08:11:41.980Z,925.28
2018-11-11T08:12:41.956Z,925.28
2018-11-11T08:13:41.941Z,925.24
2018-11-11T08:14:41.919Z,925.29
2018-11-11T08:15:41.901Z,925.30
2018-11-11T08:16:41.952Z,925.31
2018-11-11T08:17:41.855Z,925.37
2018-11-11T08:18:41.837Z,925.36
2018-11-11T08:19:41.802Z,925.42
2018-11-11T08:20:41.797Z,925.44
2018-11-11T08:21:41.773Z,925.45
2018-11-11T08:22:41.733Z,925.46
2018-11-11T08:23:41.726Z,925.46
2018-11-11T08:24:41.708Z,925.46
2018-11-11T08:25:41.672Z,925.49
2018-11-11T08:26:41.719Z,925.48
2018-11-11T08:27:41.632Z,925.44
2018-11-11T08:28:41.612Z,925.46
2018-11-11T08:29:41.590Z,925.47
2018-11-11T08:30:41.584Z,925.44
2018-11-11T08:31:41.562Z,925.46
2018-11-11T08:32:41.524Z,925.53
2018-11-11T08:33:41.515Z,925.50
2018-11-11T08:34:41.499Z,925.50
2018-11-11T08:35:41.476Z,925.50
2018-11-11T08:36:41.457Z,925.43
2018-11-11T08:37:41.423Z,925.45
2018-11-11T08:38:41.413Z,925.43
2018-11-11T08:39:41.394Z,925.45
2018-11-11T08:40:41.447Z,925.45
2018-11-11T08:41:41.352Z,925.40
2018-11-11T08:42:41.340Z,925.40
2018-11-11T08:43:41.310Z,925.36
2018-11-11T08:44:41.290Z,925.37
2018-11-11T08:45:41.277Z,925.36
2018-11-11T08:46:41.253Z,925.37
2018-11-11T08:47:41.227Z,925.36
2018-11-11T08:48:41.205Z,925.42
2018-11-11T08:49:41.186Z,925.41
2018-11-11T08:50:41.167Z,925.42
2018-11-11T08:51:41.125Z,925.46
2018-11-11T08:52:41.109Z,925.47
2018-11-11T08:53:41.087Z,925.49
2018-11-11T08:54:41.080Z,925.48
2018-11-11T08:55:41.059Z,925.47
2018-11-11T08:56:41.041Z,925.46
2018-11-11T08:57:41.027Z,925.45
2018-11-11T08:58:40.997Z,925.41
2018-11-11T08:59:40.960Z,925.42
2018-11-11T09:00:40.952Z,925.43
2018-11-11T09:01:40.927Z,925.45
2018-11-11T09:02:40.918Z,925.49
2018-11-11T09:03:40.894Z,925.54
2018-11-11T09:04:40.921Z,925.51
2018-11-11T09:05:40.855Z,925.55
2018-11-11T09:06:40.835Z,925.55
2018-11-11T09:07:40.811Z,925.56
2018-11-11T09:08:40.801Z,925.56
2018-11-11T09:09:40.771Z,925.58
2018-11-11T09:10:40.750Z,925.62
2018-11-11T09:11:40.762Z,925.62
2018-11-11T09:12:40.711Z,925.63
2018-11-11T09:13:40.688Z,925.63
2018-11-11T09:14:40.668Z,925.66
2018-11-11T09:15:40.639Z,925.69
2018-11-11T09:16:40.629Z,925.69
2018-11-11T09:17:40.596Z,925.72
2018-11-11T09:18:40.586Z,925.75
2018-11-11T09:19:40.550Z,925.82
2018-11-11T09:20:40.526Z,925.83
2018-11-11T09:21:40.520Z,925.83
2018-11-11T09:22:40.485Z,925.86
2018-11-11T09:23:40.538Z,925.82
2018-11-11T09:24:40.459Z,925.82
2018-11-11T09:25:40.441Z,925.80
2018-11-11T09:26:40.419Z,925.82
2018-11-11T09:27:40.400Z,925.79
2018-11-11T09:28:40.364Z,925.90
2018-11-11T09:29:40.480Z,925.94
2018-11-11T09:30:40.338Z,925.96
2018-11-11T09:31:40.322Z,926.00
2018-11-11T09:32:40.303Z,925.99
2018-11-11T09:33:40.280Z,926.02
2018-11-11T09:34:40.261Z,926.02
2018-11-11T09:35:40.240Z,926.06
2018-11-11T09:36:40.215Z,926.07
2018-11-11T09:37:40.185Z,926.11
2018-11-11T09:38:40.174Z,926.12
2018-11-11T09:39:40.155Z,926.08
2018-11-11T09:40:40.123Z,926.07
2018-11-11T09:41:40.121Z,926.10
2018-11-11T09:42:40.157Z,926.28
2018-11-11T09:43:40.076Z,926.34
2018-11-11T09:44:40.060Z,926.44
2018-11-11T09:45:40.045Z,926.45
2018-11-11T09:46:40.007Z,926.29
2018-11-11T09:47:40.062Z,926.44
2018-11-11T09:48:39.985Z,926.47
2018-11-11T09:49:39.958Z,926.40
2018-11-11T09:50:39.943Z,926.44
2018-11-11T09:51:39.921Z,926.34
2018-11-11T09:52:39.963Z,926.40
2018-11-11T09:53:39.882Z,926.45
2018-11-11T09:54:39.871Z,926.53
2018-11-11T09:55:39.845Z,926.51
2018-11-11T09:56:39.920Z,926.57
2018-11-11T09:57:39.817Z,926.54
2018-11-11T09:58:39.913Z,926.59
2018-11-11T09:59:39.900Z,926.61
2018-11-11T10:00:39.760Z,926.55
2018-11-11T10:01:39.745Z,926.61
2018-11-11T10:02:39.715Z,926.51
2018-11-11T10:03:39.718Z,926.52
2018-11-11T10:04:39.703Z,926.51
2018-11-11T10:05:39.684Z,926.55
2018-11-11T10:06:39.793Z,926.49
2018-11-11T10:07:39.660Z,926.54
2018-11-11T10:08:39.639Z,926.60
2018-11-11T10:09:39.620Z,926.67
2018-11-11T10:10:39.614Z,926.65
2018-11-11T10:11:39.593Z,926.63
2018-11-11T10:12:39.613Z,926.72
2018-11-11T10:13:39.567Z,926.69
2018-11-11T10:14:39.549Z,926.77
2018-11-11T10:15:39.536Z,926.70
2018-11-11T10:16:39.516Z,926.67
2018-11-11T10:17:39.511Z,926.70
2018-11-11T10:18:39.495Z,926.69
2018-11-11T10:19:39.482Z,926.70
2018-11-11T10:20:39.473Z,926.91
2018-11-11T10:21:39.431Z,926.66
2018-11-11T10:22:39.430Z,926.88
2018-11-11T10:23:39.418Z,926.64
2018-11-11T10:24:39.383Z,926.67
2018-11-11T10:25:39.379Z,926.66
2018-11-11T10:26:39.358Z,926.68
2018-11-11T10:27:39.354Z,926.65
2018-11-11T10:28:39.338Z,926.73
2018-11-11T10:29:39.360Z,926.72
2018-11-11T10:30:39.307Z,926.72
2018-11-11T10:31:39.292Z,926.70
2018-11-11T10:32:39.267Z,926.77
2018-11-11T10:33:39.375Z,926.82
2018-11-11T10:34:39.248Z,926.66
2018-11-11T10:35:39.235Z,926.65
2018-11-11T10:36:39.218Z,926.73
2018-11-11T10:37:39.203Z,926.82
2018-11-11T10:38:39.188Z,926.69
2018-11-11T10:39:39.176Z,926.72
2018-11-11T10:40:39.156Z,926.83
2018-11-11T10:41:39.138Z,926.75
2018-11-11T10:42:39.126Z,926.73
2018-11-11T10:43:39.107Z,926.74
2018-11-11T10:44:39.102Z,926.80
2018-11-11T10:45:39.082Z,926.71
2018-11-11T10:46:39.061Z,926.89
2018-11-11T10:47:39.056Z,926.78
2018-11-11T10:48:39.119Z,926.85
2018-11-11T10:49:39.020Z,926.77
2018-11-11T10:50:39.008Z,926.73
2018-11-11T10:51:38.995Z,926.68
2018-11-11T10:52:38.975Z,926.87
2018-11-11T10:53:38.974Z,926.96
2018-11-11T10:54:38.954Z,926.99
2018-11-11T10:55:38.937Z,927.09
2018-11-11T10:56:38.923Z,927.49
2018-11-11T10:57:38.910Z,927.47
2018-11-11T10:58:38.889Z,927.67
2018-11-11T10:59:38.875Z,927.37
2018-11-11T11:00:38.868Z,927.17
2018-11-11T11:01:38.834Z,927.16
2018-11-11T11:02:38.838Z,926.96
2018-11-11T11:03:38.831Z,926.97
2018-11-11T11:04:38.809Z,926.98
2018-11-11T11:05:38.789Z,926.99
2018-11-11T11:06:38.787Z,926.90
2018-11-11T11:07:38.769Z,926.79
2018-11-11T11:08:38.748Z,926.95
2018-11-11T11:09:38.785Z,927.01
2018-11-11T11:10:38.724Z,926.98
2018-11-11T11:11:38.717Z,926.97
2018-11-11T11:12:38.714Z,926.91
2018-11-11T11:13:38.709Z,926.90
2018-11-11T11:14:38.692Z,926.87
2018-11-11T11:15:38.673Z,926.91
2018-11-11T11:16:38.662Z,926.90
2018-11-11T11:17:38.652Z,926.93
2018-11-11T11:18:38.638Z,926.95
2018-11-11T11:19:38.627Z,927.02
2018-11-11T11:20:38.616Z,926.98
2018-11-11T11:21:38.605Z,926.96
2018-11-11T11:22:38.610Z,926.99
2018-11-11T11:23:38.586Z,926.98
2018-11-11T11:24:38.572Z,927.08
2018-11-11T11:25:38.567Z,927.10
2018-11-11T11:26:38.530Z,927.18
2018-11-11T11:27:38.531Z,927.14
2018-11-11T11:28:38.530Z,927.14
2018-11-11T11:29:38.510Z,927.08
2018-11-11T11:30:38.487Z,927.07
2018-11-11T11:31:38.614Z,927.10
2018-11-11T11:32:38.474Z,927.08
2018-11-11T11:33:38.460Z,927.04
2018-11-11T11:34:38.452Z,927.06
2018-11-11T11:35:38.515Z,927.11
2018-11-11T11:36:38.428Z,927.07
2018-11-11T11:37:38.413Z,927.00
2018-11-11T11:38:38.411Z,927.04
2018-11-11T11:39:38.393Z,926.89
2018-11-11T11:40:38.376Z,927.00
2018-11-11T11:41:38.370Z,926.80
2018-11-11T11:42:38.359Z,926.75
2018-11-11T11:43:38.338Z,926.84
2018-11-11T11:44:38.331Z,926.85
2018-11-11T11:45:38.323Z,926.89
2018-11-11T11:46:38.292Z,927.12
2018-11-11T11:47:38.278Z,927.16
2018-11-11T11:48:38.275Z,927.08
2018-11-11T11:49:38.263Z,926.80
2018-11-11T11:50:38.244Z,927.03
2018-11-11T11:51:38.232Z,927.12
2018-11-11T11:52:38.208Z,926.92
2018-11-11T11:53:38.190Z,926.88
2018-11-11T11:54:38.190Z,927.06
2018-11-11T11:55:38.175Z,927.01
2018-11-11T11:56:38.149Z,927.22
2018-11-11T11:57:38.150Z,927.14
2018-11-11T11:58:38.136Z,926.88
2018-11-11T11:59:38.125Z,927.09
2018-11-11T12:00:38.107Z,927.00
2018-11-11T12:01:38.099Z,927.23
2018-11-11T12:02:38.077Z,927.02
2018-11-11T12:03:38.053Z,927.21
2018-11-11T12:04:38.050Z,927.02
2018-11-11T12:05:38.034Z,926.92
2018-11-11T12:06:38.005Z,926.86
2018-11-11T12:07:38.004Z,926.86
2018-11-11T12:08:38.045Z,926.82
2018-11-11T12:09:37.978Z,926.91
2018-11-11T12:10:37.971Z,926.95
2018-11-11T12:12:11.142Z,927.17
2018-11-11T12:12:37.915Z,927.18
2018-11-11T12:13:37.921Z,926.93
2018-11-11T12:14:37.908Z,926.77
2018-11-11T12:15:37.877Z,926.75
2018-11-11T12:16:37.912Z,926.88
2018-11-11T12:17:37.859Z,926.83
2018-11-11T12:18:37.854Z,927.16
2018-11-11T12:19:37.846Z,927.16
2018-11-11T12:20:37.811Z,927.14
2018-11-11T12:21:37.809Z,927.03
2018-11-11T12:22:37.792Z,926.93
2018-11-11T12:23:37.782Z,927.15
2018-11-11T12:24:37.764Z,927.23
2018-11-11T12:25:37.821Z,926.93
2018-11-11T12:26:37.735Z,926.89
2018-11-11T12:27:37.723Z,926.92
2018-11-11T12:28:37.709Z,926.86